Time;durP1;ratioP1;P1;durP2;ratioP2;P2;SDS_P1;SDS_P2;PMS_P1;PMS_P2;Temp;Humidity;BMP_temperature;BMP_pressure;BME280_temperature;BME280_humidity;BME280_pressure;Samples;Min_cycle;Max_cycle;Signal;HPM_P1;HPM_P2
2024/04/23 00:01:18;;;;;;;;;;;;;;;14.66;57.34;102193.77;107122;1254;25305;-57
2024/04/23 00:03:45;;;;;;;;;;;;;;;14.64;57.44;102193.63;107043;1254;25379;-57
2024/04/23 00:06:12;;;;;;;;;;;;;;;14.62;57.55;102197.67;107121;1253;25324;-56
2024/04/23 00:08:39;;;;;;;;;;;;;;;14.60;57.64;102194.73;106935;1270;25325;-56
2024/04/23 00:11:06;;;;;;;;;;;;;;;14.59;57.72;102192.81;107110;1266;25328;-56
2024/04/23 00:13:33;;;;;;;;;;;;;;;14.59;57.68;102195.98;106954;1259;25401;-56
2024/04/23 00:16:00;;;;;;;;;;;;;;;14.57;57.73;102198.09;107159;1254;25316;-56
2024/04/23 00:18:27;;;;;;;;;;;;;;;14.56;57.78;102196.02;106871;1256;415817;-57
2024/04/23 00:20:55;;;;;;;;;;;;;;;14.55;57.84;102192.36;107135;1256;25442;-56
2024/04/23 00:23:22;;;;;;;;;;;;;;;14.53;57.82;102188.73;107028;1253;25504;-56
2024/04/23 00:25:49;;;;;;;;;;;;;;;14.52;57.90;102188.23;106927;1259;25346;-56
2024/04/23 00:28:17;;;;;;;;;;;;;;;14.52;57.88;102190.66;106770;1259;25402;-56
2024/04/23 00:30:44;;;;;;;;;;;;;;;14.53;57.97;102189.77;107019;1259;22631;-57
2024/04/23 00:33:10;;;;;;;;;;;;;;;14.53;57.96;102193.10;106844;1259;25315;-56
2024/04/23 00:35:37;;;;;;;;;;;;;;;14.52;57.88;102195.56;106819;1261;25401;-56
2024/04/23 00:38:04;;;;;;;;;;;;;;;14.52;57.87;102192.06;107150;1257;25328;-56
2024/04/23 00:40:31;;;;;;;;;;;;;;;14.50;57.91;102193.50;107160;1256;25318;-56
2024/04/23 00:42:58;;;;;;;;;;;;;;;14.48;57.90;102194.23;107119;1254;25373;-56
2024/04/23 00:45:28;;;;;;;;;;;;;;;14.46;57.89;102197.92;106935;1259;22616;-57
2024/04/23 00:47:54;;;;;;;;;;;;;;;14.46;57.88;102200.73;107142;1257;22525;-57
2024/04/23 00:50:21;;;;;;;;;;;;;;;14.44;57.83;102203.90;107087;1257;23287;-57
2024/04/23 00:52:48;;;;;;;;;;;;;;;14.45;57.95;102203.36;107105;1257;25380;-56
2024/04/23 00:55:15;;;;;;;;;;;;;;;14.46;57.96;102206.30;107215;1254;25325;-56
2024/04/23 00:57:42;;;;;;;;;;;;;;;14.45;57.84;102210.33;107086;1256;25418;-58
2024/04/23 01:00:09;;;;;;;;;;;;;;;14.43;57.83;102210.36;107024;1257;25468;-58
2024/04/23 01:02:37;;;;;;;;;;;;;;;14.41;57.80;102206.38;107105;1257;25353;-58
2024/04/23 01:05:24;;;;;;;;;;;;;;;14.39;57.88;102210.09;106702;1271;25201;-58
2024/04/23 01:07:51;;;;;;;;;;;;;;;14.38;57.93;102209.75;106872;1258;25580;-57
2024/04/23 01:10:18;;;;;;;;;;;;;;;14.37;57.96;102205.04;106861;1259;25353;-56
2024/04/23 01:12:45;;;;;;;;;;;;;;;14.38;58.00;102199.27;106741;1270;25356;-58
2024/04/23 01:15:12;;;;;;;;;;;;;;;14.36;58.12;102198.74;106759;1259;22518;-56
2024/04/23 01:17:39;;;;;;;;;;;;;;;14.36;58.19;102205.02;106761;1271;25360;-56
2024/04/23 01:20:08;;;;;;;;;;;;;;;14.36;58.13;102203.98;106833;1259;25350;-56
2024/04/23 01:22:37;;;;;;;;;;;;;;;14.37;58.22;102199.45;106898;1258;25343;-56
2024/04/23 01:25:04;;;;;;;;;;;;;;;14.38;58.23;102196.30;106892;1270;25353;-56
2024/04/23 01:27:31;;;;;;;;;;;;;;;14.39;58.17;102198.20;107101;1254;25506;-56
2024/04/23 01:29:58;;;;;;;;;;;;;;;14.38;58.26;102196.83;107138;1257;25353;-56
2024/04/23 01:32:25;;;;;;;;;;;;;;;14.39;58.29;102200.65;107081;1253;22597;-56
2024/04/23 01:34:52;;;;;;;;;;;;;;;14.40;58.36;102199.40;107241;1256;25255;-56
2024/04/23 01:37:19;;;;;;;;;;;;;;;14.42;58.29;102199.90;107075;1257;25499;-56
2024/04/23 01:39:46;;;;;;;;;;;;;;;14.44;58.44;102201.80;107188;1256;25423;-56
2024/04/23 01:42:13;;;;;;;;;;;;;;;14.50;58.32;102202.06;107006;1257;24182;-56
2024/04/23 01:44:41;;;;;;;;;;;;;;;14.54;58.13;102199.55;107140;1266;25474;-56
2024/04/23 01:47:08;;;;;;;;;;;;;;;14.59;58.14;102204.69;107144;1254;25426;-56
2024/04/23 01:49:35;;;;;;;;;;;;;;;14.66;57.97;102201.63;107019;1270;25456;-56
2024/04/23 01:52:01;;;;;;;;;;;;;;;14.69;57.77;102212.06;107109;1253;24196;-56
2024/04/23 01:54:29;;;;;;;;;;;;;;;14.68;57.73;102207.87;106886;1269;25375;-56
2024/04/23 01:56:56;;;;;;;;;;;;;;;14.70;57.70;102210.48;107113;1256;25318;-56
2024/04/23 01:59:23;;;;;;;;;;;;;;;14.73;57.62;102207.47;107029;1254;25343;-56
2024/04/23 02:01:51;;;;;;;;;;;;;;;14.75;57.56;102201.48;107123;1257;25392;-56
2024/04/23 02:04:18;;;;;;;;;;;;;;;14.77;57.40;102198.85;107176;1254;25321;-56
2024/04/23 02:06:45;;;;;;;;;;;;;;;14.75;57.22;102201.84;107105;1256;25414;-57
2024/04/23 02:09:12;;;;;;;;;;;;;;;14.70;57.25;102201.73;107048;1263;24212;-56
2024/04/23 02:11:40;;;;;;;;;;;;;;;14.67;57.27;102199.69;107128;1257;25305;-56
2024/04/23 02:14:07;;;;;;;;;;;;;;;14.64;57.25;102202.18;107090;1254;25324;-56
2024/04/23 02:16:34;;;;;;;;;;;;;;;14.61;57.41;102198.20;107136;1254;25337;-56
2024/04/23 02:19:01;;;;;;;;;;;;;;;14.61;57.46;102194.02;106898;1259;25411;-56
2024/04/23 02:21:28;;;;;;;;;;;;;;;14.60;57.62;102189.66;107167;1251;25316;-56
2024/04/23 02:23:55;;;;;;;;;;;;;;;14.59;57.64;102190.73;107127;1257;25315;-56
2024/04/23 02:26:22;;;;;;;;;;;;;;;14.58;57.46;102193.36;106815;1259;25389;-57
2024/04/23 02:28:49;;;;;;;;;;;;;;;14.55;57.45;102185.90;107104;1254;24202;-57
2024/04/23 02:31:16;;;;;;;;;;;;;;;14.53;57.47;102184.88;106859;1266;22502;-56
2024/04/23 02:33:42;;;;;;;;;;;;;;;14.54;57.53;102187.66;107061;1254;25367;-56
2024/04/23 02:36:09;;;;;;;;;;;;;;;14.53;57.45;102189.60;107252;1256;25309;-56
2024/04/23 02:38:36;;;;;;;;;;;;;;;14.52;57.45;102193.29;107147;1254;25396;-58
2024/04/23 02:41:03;;;;;;;;;;;;;;;14.51;57.45;102198.20;107149;1257;25346;-56
2024/04/23 02:43:30;;;;;;;;;;;;;;;14.50;57.56;102199.09;107106;1256;22767;-56
2024/04/23 02:45:57;;;;;;;;;;;;;;;14.49;57.47;102191.77;106955;1260;25315;-57
2024/04/23 02:48:24;;;;;;;;;;;;;;;14.48;57.55;102200.16;107194;1255;24067;-58
2024/04/23 02:50:51;;;;;;;;;;;;;;;14.50;57.54;102204.14;107122;1266;22505;-56
2024/04/23 02:53:18;;;;;;;;;;;;;;;14.54;57.49;102203.73;107109;1254;25315;-56
2024/04/23 02:55:45;;;;;;;;;;;;;;;14.56;57.43;102209.11;107247;1267;25330;-56
2024/04/23 02:58:12;;;;;;;;;;;;;;;14.54;57.36;102203.91;107107;1266;25300;-56
2024/04/23 03:00:39;;;;;;;;;;;;;;;14.53;57.52;102206.00;107071;1256;25324;-56
2024/04/23 03:03:06;;;;;;;;;;;;;;;14.53;57.64;102207.40;106879;1274;25405;-56
2024/04/23 03:05:33;;;;;;;;;;;;;;;14.55;57.76;102209.65;106892;1269;25315;-56
2024/04/23 03:08:00;;;;;;;;;;;;;;;14.57;57.91;102219.06;107213;1257;25324;-56
2024/04/23 03:10:27;;;;;;;;;;;;;;;14.57;58.08;102222.36;107111;1254;24218;-56
2024/04/23 03:12:54;;;;;;;;;;;;;;;14.58;58.08;102225.67;107128;1256;25340;-57
2024/04/23 03:15:21;;;;;;;;;;;;;;;14.59;58.21;102224.08;107167;1254;25472;-56
2024/04/23 03:17:48;;;;;;;;;;;;;;;14.61;58.22;102221.78;107105;1257;25364;-56
2024/04/23 03:20:15;;;;;;;;;;;;;;;14.62;58.20;102221.94;107145;1267;25353;-57
2024/04/23 03:22:42;;;;;;;;;;;;;;;14.61;58.20;102222.13;107113;1257;25402;-56
2024/04/23 03:25:09;;;;;;;;;;;;;;;14.59;58.30;102229.67;106791;1269;25405;-56
2024/04/23 03:27:36;;;;;;;;;;;;;;;14.58;58.48;102232.14;107201;1264;25356;-56
2024/04/23 03:30:03;;;;;;;;;;;;;;;14.57;58.59;102232.14;107156;1257;25344;-57
2024/04/23 03:32:32;;;;;;;;;;;;;;;14.57;58.70;102234.41;107155;1263;25315;-56
2024/04/23 03:34:59;;;;;;;;;;;;;;;14.57;58.79;102230.92;107156;1257;22553;-56
2024/04/23 03:37:26;;;;;;;;;;;;;;;14.59;58.74;102220.94;106076;1272;1003455;-56
2024/04/23 03:39:53;;;;;;;;;;;;;;;14.59;58.53;102213.26;107106;1264;25402;-56
2024/04/23 03:42:20;;;;;;;;;;;;;;;14.58;58.46;102203.66;107003;1261;25315;-56
2024/04/23 03:44:47;;;;;;;;;;;;;;;14.58;58.44;102207.00;107097;1260;25372;-56
2024/04/23 03:47:14;;;;;;;;;;;;;;;14.59;58.41;102207.48;107130;1251;25475;-56
2024/04/23 03:49:41;;;;;;;;;;;;;;;14.60;58.39;102207.48;107076;1257;25288;-56
2024/04/23 03:52:08;;;;;;;;;;;;;;;14.61;58.38;102210.95;107121;1267;25382;-56
2024/04/23 03:54:35;;;;;;;;;;;;;;;14.63;58.27;102209.54;107137;1253;25356;-56
2024/04/23 03:57:02;;;;;;;;;;;;;;;14.64;58.33;102215.27;107218;1257;25337;-58
2024/04/23 03:59:29;;;;;;;;;;;;;;;14.70;58.41;102217.12;107150;1263;25308;-56
2024/04/23 04:07:29;;;;;;;;;;;;;;;14.88;58.07;102237.98;107138;1258;25350;-57
2024/04/23 04:09:56;;;;;;;;;;;;;;;14.91;57.95;102235.29;107029;1253;22567;-56
2024/04/23 04:12:23;;;;;;;;;;;;;;;14.94;57.97;102233.16;107063;1263;23843;-56
2024/04/23 04:14:50;;;;;;;;;;;;;;;14.99;57.90;102224.67;107146;1254;25369;-56
2024/04/23 04:17:16;;;;;;;;;;;;;;;15.02;57.75;102217.11;107086;1257;22694;-56
2024/04/23 04:19:44;;;;;;;;;;;;;;;15.03;57.75;102218.48;107125;1257;25315;-56
2024/04/23 04:22:10;;;;;;;;;;;;;;;15.03;57.87;102216.04;107127;1263;24359;-56
2024/04/23 04:24:37;;;;;;;;;;;;;;;15.07;57.86;102226.12;107188;1256;25308;-56
2024/04/23 04:27:04;;;;;;;;;;;;;;;15.12;57.68;102224.63;107089;1257;25346;-56
2024/04/23 04:29:31;;;;;;;;;;;;;;;15.14;57.73;102220.23;107146;1257;25478;-58
2024/04/23 04:31:58;;;;;;;;;;;;;;;15.15;57.72;102231.75;107047;1257;25328;-58
2024/04/23 04:34:26;;;;;;;;;;;;;;;15.16;57.73;102229.45;107054;1266;22509;-59
2024/04/23 04:36:52;;;;;;;;;;;;;;;15.18;57.81;102227.33;107049;1253;25392;-58
2024/04/23 04:39:19;;;;;;;;;;;;;;;15.20;57.83;102234.27;107131;1264;25346;-58
2024/04/23 04:41:46;;;;;;;;;;;;;;;15.25;57.90;102236.45;107085;1271;25350;-57
2024/04/23 04:44:13;;;;;;;;;;;;;;;15.31;57.80;102234.96;107112;1271;25315;-57
2024/04/23 04:46:40;;;;;;;;;;;;;;;15.35;57.66;102229.98;106464;1257;1002649;-57
2024/04/23 04:49:07;;;;;;;;;;;;;;;15.42;57.60;102221.13;106998;1259;22501;-57
2024/04/23 04:51:34;;;;;;;;;;;;;;;15.48;57.45;102223.66;107199;1269;25466;-57
2024/04/23 04:54:01;;;;;;;;;;;;;;;15.54;57.33;102234.73;107178;1267;25420;-57
2024/04/23 04:56:29;;;;;;;;;;;;;;;15.60;57.20;102240.39;107129;1254;25346;-57
2024/04/23 04:58:55;;;;;;;;;;;;;;;15.67;57.10;102239.04;106804;1262;25404;-57
2024/04/23 05:01:23;;;;;;;;;;;;;;;15.72;56.88;102239.82;107122;1274;25414;-57
2024/04/23 05:03:50;;;;;;;;;;;;;;;15.77;56.83;102233.58;106903;1274;25325;-57
2024/04/23 05:06:17;;;;;;;;;;;;;;;15.84;56.83;102222.94;106871;1270;25312;-57
2024/04/23 05:08:44;;;;;;;;;;;;;;;15.92;56.75;102220.31;106912;1270;25389;-57
2024/04/23 05:11:11;;;;;;;;;;;;;;;16.01;56.61;102216.11;107088;1266;25325;-58
2024/04/23 05:13:38;;;;;;;;;;;;;;;16.09;56.28;102214.89;107068;1272;25353;-57
2024/04/23 05:16:05;;;;;;;;;;;;;;;16.17;56.12;102216.30;107198;1266;25353;-57
2024/04/23 05:18:32;;;;;;;;;;;;;;;16.25;55.95;102231.19;107214;1266;25375;-57
2024/04/23 05:21:03;;;;;;;;;;;;;;;16.29;55.42;102237.89;106859;1267;25408;-57
2024/04/23 05:23:30;;;;;;;;;;;;;;;16.33;55.45;102242.91;107111;1266;25331;-58
2024/04/23 05:25:57;;;;;;;;;;;;;;;16.38;55.34;102251.22;107041;1267;22724;-57
2024/04/23 05:28:24;;;;;;;;;;;;;;;16.43;55.26;102257.05;106371;1269;1003782;-57
2024/04/23 05:33:37;;;;;;;;;;;;;;;16.52;54.91;102254.09;107111;1270;25305;-58
2024/04/23 05:36:04;;;;;;;;;;;;;;;16.57;55.04;102249.59;107069;1266;25381;-58
2024/04/23 05:38:31;;;;;;;;;;;;;;;16.69;54.85;102246.52;107149;1254;23877;-57
2024/04/23 05:40:59;;;;;;;;;;;;;;;16.81;54.73;102238.16;106816;1260;25405;-57
2024/04/23 05:43:26;;;;;;;;;;;;;;;16.98;54.93;102236.34;106941;1269;25343;-58
2024/04/23 05:45:53;;;;;;;;;;;;;;;17.25;54.77;102223.54;106928;1259;25353;-58
2024/04/23 05:48:39;;;;;;;;;;;;;;;17.56;53.54;102214.13;106908;1266;25504;-58
2024/04/23 05:51:43;;;;;;;;;;;;;;;17.85;52.89;102220.16;107209;1270;25343;-58
2024/04/23 05:54:47;;;;;;;;;;;;;;;18.22;52.08;102231.87;107132;1272;25324;-58
2024/04/23 05:57:33;;;;;;;;;;;;;;;18.55;51.33;102228.78;107079;1266;25328;-58
2024/04/23 06:00:01;;;;;;;;;;;;;;;18.74;50.68;102231.51;105648;1257;1005866;-58
2024/04/23 06:02:34;;;;;;;;;;;;;;;18.88;50.05;102251.97;107145;1254;22592;-57
2024/04/23 06:05:01;;;;;;;;;;;;;;;19.00;49.87;102260.71;107121;1266;25457;-58
2024/04/23 06:07:28;;;;;;;;;;;;;;;19.22;49.74;102248.20;107079;1267;25371;-59
2024/04/23 06:09:55;;;;;;;;;;;;;;;19.49;49.20;102244.09;107103;1267;22502;-57
2024/04/23 06:12:22;;;;;;;;;;;;;;;19.79;48.64;102244.45;107133;1267;25388;-58
2024/04/23 06:14:49;;;;;;;;;;;;;;;20.05;48.11;102241.89;107141;1270;22536;-57
2024/04/23 06:17:22;;;;;;;;;;;;;;;20.28;47.46;102240.67;107131;1267;25348;-58
2024/04/23 06:20:05;;;;;;;;;;;;;;;20.57;46.95;102245.67;107167;1266;25385;-58
2024/04/23 06:22:38;;;;;;;;;;;;;;;20.83;46.50;102254.86;106899;1272;22508;-58
2024/04/23 06:25:06;;;;;;;;;;;;;;;21.06;45.85;102254.98;107158;1267;25315;-58
2024/04/23 06:27:33;;;;;;;;;;;;;;;21.21;45.14;102246.25;106934;1273;25453;-57
2024/04/23 06:30:03;;;;;;;;;;;;;;;21.31;45.16;102247.41;107158;1270;25390;-58
2024/04/23 06:32:31;;;;;;;;;;;;;;;21.46;45.10;102254.33;107075;1268;25395;-58
2024/04/23 06:34:58;;;;;;;;;;;;;;;21.72;44.60;102255.67;107143;1267;25255;-58
2024/04/23 06:37:25;;;;;;;;;;;;;;;21.95;44.07;102248.98;107121;1273;22761;-58
2024/04/23 06:39:52;;;;;;;;;;;;;;;22.10;43.33;102253.97;107166;1267;25413;-58
2024/04/23 06:42:19;;;;;;;;;;;;;;;22.12;42.75;102261.63;107039;1274;25383;-58
2024/04/23 06:44:46;;;;;;;;;;;;;;;22.06;42.76;102260.64;107206;1271;25344;-58
2024/04/23 06:47:13;;;;;;;;;;;;;;;22.06;43.18;102251.99;107100;1273;22570;-58
2024/04/23 06:49:43;;;;;;;;;;;;;;;22.10;42.97;102253.23;107179;1267;25541;-58
2024/04/23 06:52:14;;;;;;;;;;;;;;;22.08;42.45;102257.91;107109;1267;25315;-58
2024/04/23 06:54:41;;;;;;;;;;;;;;;21.96;42.31;102263.79;107092;1271;25402;-58
2024/04/23 06:57:09;;;;;;;;;;;;;;;21.79;42.46;102269.84;107164;1269;25305;-58
2024/04/23 06:59:36;;;;;;;;;;;;;;;21.67;42.84;102276.17;106814;1267;25427;-58
2024/04/23 07:02:03;;;;;;;;;;;;;;;21.63;43.35;102281.69;106785;1270;25343;-58
2024/04/23 07:04:30;;;;;;;;;;;;;;;21.68;43.28;102275.96;106853;1267;22524;-58
2024/04/23 07:06:57;;;;;;;;;;;;;;;21.81;43.33;102269.20;107010;1274;25462;-58
2024/04/23 07:09:24;;;;;;;;;;;;;;;21.95;43.36;102270.92;107093;1270;25334;-58
2024/04/23 07:11:51;;;;;;;;;;;;;;;22.03;43.12;102273.53;107140;1270;25315;-58
2024/04/23 07:14:18;;;;;;;;;;;;;;;22.22;43.70;102270.70;107139;1272;25478;-58
2024/04/23 07:16:46;;;;;;;;;;;;;;;22.53;43.23;102271.34;107117;1266;25372;-58
2024/04/23 07:19:13;;;;;;;;;;;;;;;22.85;42.32;102271.27;107101;1267;25373;-58
2024/04/23 07:21:40;;;;;;;;;;;;;;;23.07;41.73;102280.27;107134;1271;25389;-58
2024/04/23 07:24:07;;;;;;;;;;;;;;;23.22;41.47;102273.42;107143;1270;25340;-59
2024/04/23 07:26:35;;;;;;;;;;;;;;;23.33;40.90;102272.00;106920;1267;25375;-58
2024/04/23 07:29:01;;;;;;;;;;;;;;;23.32;40.83;102264.48;107198;1266;25474;-59
2024/04/23 07:31:29;;;;;;;;;;;;;;;23.28;41.32;102255.81;106799;1267;22628;-58
2024/04/23 07:33:56;;;;;;;;;;;;;;;23.20;40.86;102253.03;106915;1275;22516;-57
2024/04/23 07:36:23;;;;;;;;;;;;;;;23.02;41.08;102253.77;107187;1270;25306;-57
2024/04/23 07:38:50;;;;;;;;;;;;;;;22.76;41.15;102247.10;107032;1266;25382;-59
2024/04/23 07:41:18;;;;;;;;;;;;;;;22.46;41.70;102242.36;107103;1270;25335;-56
2024/04/23 07:43:45;;;;;;;;;;;;;;;22.18;42.26;102246.86;107168;1267;25353;-57
2024/04/23 07:46:12;;;;;;;;;;;;;;;21.93;42.64;102248.91;107070;1275;25315;-58
2024/04/23 07:48:39;;;;;;;;;;;;;;;21.69;43.55;102249.80;107111;1270;25315;-56
2024/04/23 07:51:06;;;;;;;;;;;;;;;21.53;44.07;102249.95;107194;1267;25389;-56
2024/04/23 07:53:33;;;;;;;;;;;;;;;21.38;44.06;102248.50;107218;1267;25308;-56
2024/04/23 07:56:00;;;;;;;;;;;;;;;21.22;43.70;102252.20;107125;1272;25305;-56
2024/04/23 07:58:28;;;;;;;;;;;;;;;20.93;43.62;102246.34;107192;1267;25779;-56
2024/04/23 08:00:55;;;;;;;;;;;;;;;20.68;44.37;102243.99;106840;1272;25401;-56
2024/04/23 08:03:22;;;;;;;;;;;;;;;20.51;44.52;102244.16;107064;1274;25321;-57
2024/04/23 08:05:53;;;;;;;;;;;;;;;20.35;44.73;102253.80;106891;1273;25386;-57
2024/04/23 08:08:21;;;;;;;;;;;;;;;20.19;44.89;102262.84;107060;1273;25497;-56
2024/04/23 08:10:48;;;;;;;;;;;;;;;20.08;45.22;102256.55;107124;1267;25315;-56
2024/04/23 08:13:16;;;;;;;;;;;;;;;20.03;45.88;102252.34;107162;1267;22515;-57
2024/04/23 08:15:43;;;;;;;;;;;;;;;20.04;45.95;102255.48;107107;1267;25305;-56
2024/04/23 08:18:10;;;;;;;;;;;;;;;20.07;46.02;102256.60;106852;1274;26204;-56
2024/04/23 08:20:37;;;;;;;;;;;;;;;20.11;46.28;102262.42;107063;1270;25346;-56
2024/04/23 08:23:08;;;;;;;;;;;;;;;20.15;46.18;102273.36;107041;1267;25322;-56
2024/04/23 08:25:35;;;;;;;;;;;;;;;20.14;46.04;102276.04;107184;1266;25352;-57
2024/04/23 08:28:03;;;;;;;;;;;;;;;20.16;46.15;102285.13;107070;1267;25376;-57
2024/04/23 08:30:31;;;;;;;;;;;;;;;20.20;46.22;102288.71;107176;1275;25392;-57
2024/04/23 08:32:58;;;;;;;;;;;;;;;20.21;46.33;102292.74;106833;1274;25395;-55
2024/04/23 08:35:25;;;;;;;;;;;;;;;20.24;46.86;102287.70;107228;1269;25316;-56
2024/04/23 08:37:52;;;;;;;;;;;;;;;20.29;47.08;102285.02;107245;1267;22755;-56
2024/04/23 08:40:20;;;;;;;;;;;;;;;20.31;46.13;102283.19;107105;1267;25478;-56
2024/04/23 08:42:47;;;;;;;;;;;;;;;20.31;46.72;102284.98;107176;1267;25333;-56
2024/04/23 08:45:14;;;;;;;;;;;;;;;20.32;47.09;102288.09;107067;1267;23328;-56
2024/04/23 08:47:42;;;;;;;;;;;;;;;20.34;47.23;102289.59;107056;1267;25356;-56
2024/04/23 08:50:12;;;;;;;;;;;;;;;20.35;47.19;102284.27;107077;1270;25376;-56
2024/04/23 08:52:39;;;;;;;;;;;;;;;20.34;47.10;102282.19;106952;1270;25501;-56
2024/04/23 08:55:06;;;;;;;;;;;;;;;20.32;46.64;102285.98;107445;1266;25334;-56
2024/04/23 08:57:34;;;;;;;;;;;;;;;20.24;46.57;102286.80;107054;1261;22518;-56
2024/04/23 09:00:01;;;;;;;;;;;;;;;20.22;46.84;102292.34;106888;1267;25326;-55
2024/04/23 09:02:35;;;;;;;;;;;;;;;20.24;46.68;102294.20;107287;1273;22501;-55
2024/04/23 09:05:02;;;;;;;;;;;;;;;20.28;46.75;102293.34;107096;1270;25336;-56
2024/04/23 09:07:33;;;;;;;;;;;;;;;20.33;47.00;102292.83;107465;1267;25324;-56
2024/04/23 09:10:01;;;;;;;;;;;;;;;20.38;47.20;102290.48;107290;1268;25350;-56
2024/04/23 09:12:29;;;;;;;;;;;;;;;20.45;47.42;102287.06;107143;1267;22621;-56
2024/04/23 09:14:57;;;;;;;;;;;;;;;20.47;46.51;102287.69;106836;1273;25315;-56
2024/04/23 09:17:24;;;;;;;;;;;;;;;20.44;46.46;102290.29;106895;1270;25411;-56
2024/04/23 09:19:53;;;;;;;;;;;;;;;20.42;47.30;102288.06;107176;1267;25318;-56
2024/04/23 09:22:20;;;;;;;;;;;;;;;20.43;47.06;102286.60;107190;1267;25350;-56
2024/04/23 09:24:47;;;;;;;;;;;;;;;20.43;46.55;102286.25;106873;1271;25343;-56
2024/04/23 09:27:14;;;;;;;;;;;;;;;20.38;46.49;102286.80;107120;1267;25449;-56
2024/04/23 09:29:41;;;;;;;;;;;;;;;20.36;47.23;102284.60;107158;1267;25343;-56
2024/04/23 09:32:08;;;;;;;;;;;;;;;20.39;47.69;102282.89;106860;1267;25522;-57
2024/04/23 09:34:35;;;;;;;;;;;;;;;20.45;47.61;102272.81;107106;1270;24215;-56
2024/04/23 09:37:16;;;;;;;;;;;;;;;20.51;46.95;102262.87;107095;1267;25398;-56
2024/04/23 09:39:43;;;;;;;;;;;;;;;20.44;46.91;102264.02;107086;1267;22647;-56
2024/04/23 09:42:23;;;;;;;;;;;;;;;20.39;46.74;102257.70;107124;1270;25405;-56
2024/04/23 09:44:50;;;;;;;;;;;;;;;20.23;47.62;102252.67;107160;1267;25305;-56
2024/04/23 09:47:18;;;;;;;;;;;;;;;20.20;47.90;102246.95;107098;1267;25489;-56
2024/04/23 09:49:46;;;;;;;;;;;;;;;20.27;47.99;102241.77;107084;1270;25362;-56
2024/04/23 09:52:25;;;;;;;;;;;;;;;20.32;48.03;102224.30;107174;1266;22516;-56
2024/04/23 09:54:55;;;;;;;;;;;;;;;20.37;47.81;102223.20;107144;1267;22519;-56
2024/04/23 09:57:22;;;;;;;;;;;;;;;20.40;47.76;102226.98;107160;1266;25353;-56
2024/04/23 09:59:49;;;;;;;;;;;;;;;20.43;47.72;102220.34;107145;1267;25433;-56
2024/04/23 10:02:19;;;;;;;;;;;;;;;20.44;47.86;102213.44;107149;1267;25352;-56
2024/04/23 10:04:46;;;;;;;;;;;;;;;20.45;47.67;102220.24;107092;1266;25357;-56
2024/04/23 10:07:13;;;;;;;;;;;;;;;20.45;47.41;102218.86;107096;1270;25500;-56
2024/04/23 10:09:41;;;;;;;;;;;;;;;20.45;47.47;102215.67;107104;1267;25323;-56
2024/04/23 10:12:10;;;;;;;;;;;;;;;20.41;47.39;102213.55;107093;1267;22498;-56
2024/04/23 10:14:40;;;;;;;;;;;;;;;20.38;47.13;102218.58;107162;1267;25315;-56
2024/04/23 10:17:11;;;;;;;;;;;;;;;20.38;47.45;102223.70;107404;1267;25398;-56
2024/04/23 10:19:38;;;;;;;;;;;;;;;20.41;47.35;102219.20;107067;1267;25409;-56
2024/04/23 10:22:05;;;;;;;;;;;;;;;20.41;47.26;102215.13;107137;1274;24237;-56
2024/04/23 10:24:32;;;;;;;;;;;;;;;20.42;47.56;102206.83;107109;1270;22781;-56
2024/04/23 10:26:59;;;;;;;;;;;;;;;20.40;46.99;102201.59;106819;1273;25436;-56
2024/04/23 10:29:26;;;;;;;;;;;;;;;20.33;47.07;102199.41;107136;1266;25337;-56
2024/04/23 10:31:53;;;;;;;;;;;;;;;20.11;46.59;102196.02;107168;1268;25405;-56
2024/04/23 10:34:21;;;;;;;;;;;;;;;19.93;47.47;102206.06;107034;1267;23460;-57
2024/04/23 10:36:49;;;;;;;;;;;;;;;19.88;47.88;102215.41;106949;1270;22508;-57
2024/04/23 10:39:17;;;;;;;;;;;;;;;19.91;48.41;102215.10;107084;1267;25362;-56
2024/04/23 10:41:44;;;;;;;;;;;;;;;19.97;47.66;102210.47;107242;1257;25492;-57
2024/04/23 10:44:11;;;;;;;;;;;;;;;19.99;47.35;102211.64;107139;1266;25350;-56
2024/04/23 10:46:40;;;;;;;;;;;;;;;19.90;46.82;102216.52;107197;1266;25402;-57
2024/04/23 10:49:09;;;;;;;;;;;;;;;19.78;47.46;102210.66;107026;1267;22646;-57
2024/04/23 10:51:36;;;;;;;;;;;;;;;19.80;47.99;102209.89;107340;1267;26624;-57
2024/04/23 10:54:03;;;;;;;;;;;;;;;19.87;47.79;102210.33;107235;1267;25318;-56
2024/04/23 10:56:34;;;;;;;;;;;;;;;19.90;47.30;102215.33;107202;1270;22508;-57
2024/04/23 10:59:02;;;;;;;;;;;;;;;19.88;47.34;102208.71;107228;1267;26611;-57
2024/04/23 11:01:29;;;;;;;;;;;;;;;19.87;48.05;102192.90;107046;1273;24247;-57
2024/04/23 11:03:57;;;;;;;;;;;;;;;19.91;47.91;102194.16;107101;1267;25465;-57
2024/04/23 11:06:36;;;;;;;;;;;;;;;19.95;47.56;102202.44;107182;1267;22519;-56
2024/04/23 11:09:32;;;;;;;;;;;;;;;19.98;47.33;102190.53;107405;1267;23026;-58
2024/04/23 11:11:59;;;;;;;;;;;;;;;20.00;47.99;102189.73;106885;1273;25544;-57
2024/04/23 11:14:35;;;;;;;;;;;;;;;20.07;47.95;102194.41;106775;1273;25344;-57
2024/04/23 11:17:03;;;;;;;;;;;;;;;20.15;47.13;102189.69;106803;1281;25509;-56
2024/04/23 11:19:37;;;;;;;;;;;;;;;20.18;47.12;102183.94;106830;1272;25316;-56
2024/04/23 11:22:05;;;;;;;;;;;;;;;20.21;46.98;102182.44;106697;1272;25353;-57
2024/04/23 11:24:33;;;;;;;;;;;;;;;20.18;46.67;102182.20;106791;1273;24206;-57
2024/04/23 11:26:59;;;;;;;;;;;;;;;20.12;47.05;102178.70;106535;1273;25338;-56
2024/04/23 11:29:26;;;;;;;;;;;;;;;20.07;46.92;102178.89;106673;1277;25336;-55
2024/04/23 11:31:54;;;;;;;;;;;;;;;19.98;46.65;102179.61;106762;1274;25315;-56
2024/04/23 11:34:21;;;;;;;;;;;;;;;19.78;46.64;102177.04;106714;1273;25455;-57
2024/04/23 11:36:51;;;;;;;;;;;;;;;19.63;47.34;102164.42;106490;1270;25344;-57
2024/04/23 11:39:24;;;;;;;;;;;;;;;19.60;48.10;102144.83;106458;1276;23217;-56
2024/04/23 11:41:54;;;;;;;;;;;;;;;19.61;48.33;102134.71;106678;1273;25320;-56
2024/04/23 11:44:22;;;;;;;;;;;;;;;19.63;48.55;102124.96;106749;1257;25347;-57
2024/04/23 11:46:56;;;;;;;;;;;;;;;19.68;48.29;102114.92;106876;1274;25475;-57
2024/04/23 11:49:23;;;;;;;;;;;;;;;19.73;48.35;102111.36;106975;1274;24212;-56
2024/04/23 11:51:50;;;;;;;;;;;;;;;19.81;48.06;102116.02;107116;1267;24188;-56
2024/04/23 11:54:17;;;;;;;;;;;;;;;19.86;48.13;102112.27;107083;1267;23849;-56
2024/04/23 11:56:45;;;;;;;;;;;;;;;19.93;48.07;102113.23;107533;1251;24230;-58
2024/04/23 11:59:16;;;;;;;;;;;;;;;20.00;47.70;102113.14;106963;1267;26086;-57
2024/04/23 12:01:43;;;;;;;;;;;;;;;20.04;47.48;102104.50;106944;1267;22563;-57
2024/04/23 12:04:10;;;;;;;;;;;;;;;20.05;47.77;102102.36;106875;1267;22512;-57
2024/04/23 12:06:38;;;;;;;;;;;;;;;20.05;47.95;102091.64;106787;1267;25384;-57
2024/04/23 12:09:05;;;;;;;;;;;;;;;20.05;47.88;102085.61;106955;1269;25423;-56
2024/04/23 12:11:33;;;;;;;;;;;;;;;20.05;47.78;102084.77;107256;1261;22500;-56
2024/04/23 12:14:00;;;;;;;;;;;;;;;20.01;47.52;102081.02;107350;1257;25376;-57
2024/04/23 12:16:28;;;;;;;;;;;;;;;19.97;47.53;102078.90;107178;1266;25548;-58
2024/04/23 12:18:55;;;;;;;;;;;;;;;19.91;47.30;102074.73;106954;1266;227410;-56
2024/04/23 12:21:25;;;;;;;;;;;;;;;19.83;47.21;102076.82;107391;1267;25350;-56
2024/04/23 12:23:55;;;;;;;;;;;;;;;19.73;47.34;102079.67;107029;1267;23312;-57
2024/04/23 12:26:23;;;;;;;;;;;;;;;19.64;47.22;102078.96;107072;1267;25398;-57
2024/04/23 12:28:51;;;;;;;;;;;;;;;19.56;47.44;102071.56;107239;1266;25230;-56
2024/04/23 12:31:18;;;;;;;;;;;;;;;19.47;47.86;102060.07;107394;1266;25360;-57
2024/04/23 12:33:45;;;;;;;;;;;;;;;19.39;48.23;102055.61;107133;1269;25315;-56
2024/04/23 12:36:12;;;;;;;;;;;;;;;19.32;48.29;102052.88;107156;1266;25392;-57
2024/04/23 12:38:43;;;;;;;;;;;;;;;19.26;48.37;102049.92;107231;1266;25387;-57